sensor_id;sensor_type;location;lat;lon;timestamp;P1;durP1;ratioP1;P2;durP2;ratioP2
51800;SDS011;37855;53.204;6.568;2024-01-30T00:02:18;22.03;;;13.00;;
51800;SDS011;37855;53.204;6.568;2024-01-30T00:04:44;20.83;;;13.17;;
51800;SDS011;37855;53.204;6.568;2024-01-30T00:07:09;19.77;;;13.10;;
51800;SDS011;37855;53.204;6.568;2024-01-30T00:09:35;20.20;;;13.03;;
51800;SDS011;37855;53.204;6.568;2024-01-30T00:12:01;21.08;;;12.35;;
51800;SDS011;37855;53.204;6.568;2024-01-30T00:14:29;20.03;;;13.17;;
51800;SDS011;37855;53.204;6.568;2024-01-30T00:16:55;20.73;;;12.50;;
51800;SDS011;37855;53.204;6.568;2024-01-30T00:19:20;19.13;;;12.80;;
51800;SDS011;37855;53.204;6.568;2024-01-30T00:21:46;18.80;;;12.90;;
51800;SDS011;37855;53.204;6.568;2024-01-30T00:24:12;19.83;;;12.73;;
51800;SDS011;37855;53.204;6.568;2024-01-30T00:26:37;21.43;;;12.93;;
51800;SDS011;37855;53.204;6.568;2024-01-30T00:29:03;22.38;;;13.25;;
51800;SDS011;37855;53.204;6.568;2024-01-30T00:31:28;20.77;;;13.07;;
51800;SDS011;37855;53.204;6.568;2024-01-30T00:33:54;22.20;;;13.13;;
51800;SDS011;37855;53.204;6.568;2024-01-30T00:36:20;20.67;;;13.23;;
51800;SDS011;37855;53.204;6.568;2024-01-30T00:38:45;20.80;;;12.70;;
51800;SDS011;37855;53.204;6.568;2024-01-30T00:41:11;22.63;;;14.50;;
51800;SDS011;37855;53.204;6.568;2024-01-30T00:43:37;22.20;;;14.00;;
51800;SDS011;37855;53.204;6.568;2024-01-30T00:46:03;22.00;;;13.77;;
51800;SDS011;37855;53.204;6.568;2024-01-30T00:48:28;22.75;;;13.65;;
51800;SDS011;37855;53.204;6.568;2024-01-30T00:50:54;21.10;;;13.30;;
51800;SDS011;37855;53.204;6.568;2024-01-30T00:53:20;20.05;;;12.80;;
51800;SDS011;37855;53.204;6.568;2024-01-30T00:55:45;20.10;;;13.40;;
51800;SDS011;37855;53.204;6.568;2024-01-30T00:58:11;20.55;;;12.65;;
51800;SDS011;37855;53.204;6.568;2024-01-30T01:00:37;21.13;;;13.40;;
51800;SDS011;37855;53.204;6.568;2024-01-30T01:03:02;20.00;;;13.00;;
51800;SDS011;37855;53.204;6.568;2024-01-30T01:05:28;20.80;;;13.45;;
51800;SDS011;37855;53.204;6.568;2024-01-30T01:07:54;20.10;;;13.05;;
51800;SDS011;37855;53.204;6.568;2024-01-30T01:10:20;23.97;;;13.53;;
51800;SDS011;37855;53.204;6.568;2024-01-30T01:12:45;22.07;;;13.87;;
51800;SDS011;37855;53.204;6.568;2024-01-30T01:15:11;20.20;;;12.52;;
51800;SDS011;37855;53.204;6.568;2024-01-30T01:17:37;22.08;;;13.43;;
51800;SDS011;37855;53.204;6.568;2024-01-30T01:20:04;21.60;;;12.68;;
51800;SDS011;37855;53.204;6.568;2024-01-30T01:22:33;19.17;;;12.67;;
51800;SDS011;37855;53.204;6.568;2024-01-30T01:24:59;20.40;;;12.70;;
51800;SDS011;37855;53.204;6.568;2024-01-30T01:27:26;22.20;;;14.18;;
51800;SDS011;37855;53.204;6.568;2024-01-30T01:29:52;22.50;;;13.70;;
51800;SDS011;37855;53.204;6.568;2024-01-30T01:32:17;23.33;;;13.87;;
51800;SDS011;37855;53.204;6.568;2024-01-30T01:34:43;23.20;;;13.32;;
51800;SDS011;37855;53.204;6.568;2024-01-30T01:37:09;21.40;;;13.80;;
51800;SDS011;37855;53.204;6.568;2024-01-30T01:39:35;20.25;;;13.80;;
51800;SDS011;37855;53.204;6.568;2024-01-30T01:42:00;20.83;;;13.48;;
51800;SDS011;37855;53.204;6.568;2024-01-30T01:44:29;21.67;;;13.10;;
51800;SDS011;37855;53.204;6.568;2024-01-30T01:46:54;22.05;;;13.80;;
51800;SDS011;37855;53.204;6.568;2024-01-30T01:49:23;20.55;;;13.38;;
51800;SDS011;37855;53.204;6.568;2024-01-30T01:51:50;20.90;;;13.43;;
51800;SDS011;37855;53.204;6.568;2024-01-30T01:54:16;20.63;;;13.35;;
51800;SDS011;37855;53.204;6.568;2024-01-30T01:56:42;23.85;;;13.73;;
51800;SDS011;37855;53.204;6.568;2024-01-30T01:59:08;22.20;;;13.85;;
51800;SDS011;37855;53.204;6.568;2024-01-30T02:01:37;19.33;;;13.43;;
51800;SDS011;37855;53.204;6.568;2024-01-30T02:04:03;22.63;;;13.70;;
51800;SDS011;37855;53.204;6.568;2024-01-30T02:06:29;21.60;;;13.50;;
51800;SDS011;37855;53.204;6.568;2024-01-30T02:08:55;20.48;;;13.60;;
51800;SDS011;37855;53.204;6.568;2024-01-30T02:11:22;21.77;;;13.77;;
51800;SDS011;37855;53.204;6.568;2024-01-30T02:13:48;22.15;;;14.00;;
51800;SDS011;37855;53.204;6.568;2024-01-30T02:16:15;24.23;;;14.88;;
51800;SDS011;37855;53.204;6.568;2024-01-30T02:18:42;22.75;;;14.18;;
51800;SDS011;37855;53.204;6.568;2024-01-30T02:21:11;21.83;;;13.93;;
51800;SDS011;37855;53.204;6.568;2024-01-30T02:23:37;21.33;;;13.52;;
51800;SDS011;37855;53.204;6.568;2024-01-30T02:26:04;23.30;;;14.30;;
51800;SDS011;37855;53.204;6.568;2024-01-30T02:28:30;26.13;;;14.03;;
51800;SDS011;37855;53.204;6.568;2024-01-30T02:30:55;21.05;;;13.48;;
51800;SDS011;37855;53.204;6.568;2024-01-30T02:33:21;19.23;;;13.13;;
51800;SDS011;37855;53.204;6.568;2024-01-30T02:35:49;23.13;;;13.02;;
51800;SDS011;37855;53.204;6.568;2024-01-30T02:38:15;20.63;;;13.13;;
51800;SDS011;37855;53.204;6.568;2024-01-30T02:40:41;22.45;;;13.23;;
51800;SDS011;37855;53.204;6.568;2024-01-30T02:43:07;22.60;;;14.10;;
51800;SDS011;37855;53.204;6.568;2024-01-30T02:45:32;19.15;;;13.18;;
51800;SDS011;37855;53.204;6.568;2024-01-30T02:47:58;21.00;;;12.67;;
51800;SDS011;37855;53.204;6.568;2024-01-30T02:50:23;19.37;;;13.13;;
51800;SDS011;37855;53.204;6.568;2024-01-30T02:52:49;20.58;;;12.85;;
51800;SDS011;37855;53.204;6.568;2024-01-30T02:55:15;19.53;;;13.13;;
51800;SDS011;37855;53.204;6.568;2024-01-30T02:57:43;22.17;;;14.00;;
51800;SDS011;37855;53.204;6.568;2024-01-30T03:00:08;19.25;;;12.15;;
51800;SDS011;37855;53.204;6.568;2024-01-30T03:02:35;19.63;;;12.40;;
51800;SDS011;37855;53.204;6.568;2024-01-30T03:05:01;21.95;;;13.18;;
51800;SDS011;37855;53.204;6.568;2024-01-30T03:07:26;19.23;;;12.50;;
51800;SDS011;37855;53.204;6.568;2024-01-30T03:09:52;22.20;;;12.47;;
51800;SDS011;37855;53.204;6.568;2024-01-30T03:12:20;20.55;;;12.95;;
51800;SDS011;37855;53.204;6.568;2024-01-30T03:14:46;22.48;;;12.65;;
51800;SDS011;37855;53.204;6.568;2024-01-30T03:17:12;24.27;;;12.73;;
51800;SDS011;37855;53.204;6.568;2024-01-30T03:19:37;18.92;;;11.93;;
51800;SDS011;37855;53.204;6.568;2024-01-30T03:22:03;20.53;;;12.73;;
51800;SDS011;37855;53.204;6.568;2024-01-30T03:24:28;20.57;;;11.93;;
51800;SDS011;37855;53.204;6.568;2024-01-30T03:26:54;19.75;;;13.27;;
51800;SDS011;37855;53.204;6.568;2024-01-30T03:29:19;20.20;;;12.27;;
51800;SDS011;37855;53.204;6.568;2024-01-30T03:31:45;20.70;;;12.40;;
51800;SDS011;37855;53.204;6.568;2024-01-30T03:34:11;18.17;;;11.60;;
51800;SDS011;37855;53.204;6.568;2024-01-30T03:36:36;20.67;;;11.57;;
51800;SDS011;37855;53.204;6.568;2024-01-30T03:39:02;22.35;;;12.65;;
51800;SDS011;37855;53.204;6.568;2024-01-30T03:41:28;18.50;;;12.70;;
51800;SDS011;37855;53.204;6.568;2024-01-30T03:43:53;19.02;;;12.57;;
51800;SDS011;37855;53.204;6.568;2024-01-30T03:46:19;21.97;;;12.43;;
51800;SDS011;37855;53.204;6.568;2024-01-30T03:48:45;18.70;;;11.80;;
51800;SDS011;37855;53.204;6.568;2024-01-30T03:51:11;19.75;;;11.68;;
51800;SDS011;37855;53.204;6.568;2024-01-30T03:53:39;18.35;;;11.52;;
51800;SDS011;37855;53.204;6.568;2024-01-30T03:56:06;18.05;;;12.07;;
51800;SDS011;37855;53.204;6.568;2024-01-30T03:58:32;20.80;;;11.87;;
51800;SDS011;37855;53.204;6.568;2024-01-30T04:00:57;19.33;;;11.88;;
51800;SDS011;37855;53.204;6.568;2024-01-30T04:03:23;19.40;;;11.93;;
51800;SDS011;37855;53.204;6.568;2024-01-30T04:05:49;18.83;;;12.27;;
51800;SDS011;37855;53.204;6.568;2024-01-30T04:08:16;21.40;;;12.57;;
51800;SDS011;37855;53.204;6.568;2024-01-30T04:10:41;20.20;;;12.03;;
51800;SDS011;37855;53.204;6.568;2024-01-30T04:13:08;19.80;;;11.68;;
51800;SDS011;37855;53.204;6.568;2024-01-30T04:15:34;18.10;;;11.83;;
51800;SDS011;37855;53.204;6.568;2024-01-30T04:18:00;18.03;;;11.47;;
51800;SDS011;37855;53.204;6.568;2024-01-30T04:20:25;18.20;;;11.63;;
51800;SDS011;37855;53.204;6.568;2024-01-30T04:22:51;19.37;;;12.07;;
51800;SDS011;37855;53.204;6.568;2024-01-30T04:25:17;19.38;;;11.48;;
51800;SDS011;37855;53.204;6.568;2024-01-30T04:27:42;18.47;;;11.57;;
51800;SDS011;37855;53.204;6.568;2024-01-30T04:30:08;18.70;;;11.88;;
51800;SDS011;37855;53.204;6.568;2024-01-30T04:32:35;17.30;;;11.63;;
51800;SDS011;37855;53.204;6.568;2024-01-30T04:35:04;17.95;;;10.80;;
51800;SDS011;37855;53.204;6.568;2024-01-30T04:37:30;17.67;;;11.73;;
51800;SDS011;37855;53.204;6.568;2024-01-30T04:39:56;18.55;;;11.52;;
51800;SDS011;37855;53.204;6.568;2024-01-30T04:42:21;19.33;;;11.50;;
51800;SDS011;37855;53.204;6.568;2024-01-30T04:44:47;18.40;;;11.00;;
51800;SDS011;37855;53.204;6.568;2024-01-30T04:47:12;18.60;;;11.97;;
51800;SDS011;37855;53.204;6.568;2024-01-30T04:49:38;19.97;;;11.60;;
51800;SDS011;37855;53.204;6.568;2024-01-30T04:52:05;17.55;;;10.68;;
51800;SDS011;37855;53.204;6.568;2024-01-30T04:54:31;17.67;;;11.45;;
51800;SDS011;37855;53.204;6.568;2024-01-30T04:56:56;17.60;;;11.13;;
51800;SDS011;37855;53.204;6.568;2024-01-30T04:59:22;17.95;;;10.95;;
51800;SDS011;37855;53.204;6.568;2024-01-30T05:01:48;19.43;;;11.90;;
51800;SDS011;37855;53.204;6.568;2024-01-30T05:04:13;18.05;;;11.10;;
51800;SDS011;37855;53.204;6.568;2024-01-30T05:06:39;17.90;;;10.00;;
51800;SDS011;37855;53.204;6.568;2024-01-30T05:09:05;18.50;;;11.23;;
51800;SDS011;37855;53.204;6.568;2024-01-30T05:11:30;16.90;;;11.10;;
51800;SDS011;37855;53.204;6.568;2024-01-30T05:13:58;17.48;;;11.32;;
51800;SDS011;37855;53.204;6.568;2024-01-30T05:16:24;17.30;;;10.40;;
51800;SDS011;37855;53.204;6.568;2024-01-30T05:18:50;15.60;;;11.10;;
51800;SDS011;37855;53.204;6.568;2024-01-30T05:21:15;16.75;;;10.13;;
51800;SDS011;37855;53.204;6.568;2024-01-30T05:23:41;16.50;;;10.93;;
51800;SDS011;37855;53.204;6.568;2024-01-30T05:26:07;18.50;;;10.80;;
51800;SDS011;37855;53.204;6.568;2024-01-30T05:28:33;18.63;;;10.27;;
51800;SDS011;37855;53.204;6.568;2024-01-30T05:30:58;14.70;;;10.27;;
51800;SDS011;37855;53.204;6.568;2024-01-30T05:33:24;18.23;;;10.80;;
51800;SDS011;37855;53.204;6.568;2024-01-30T05:35:50;18.52;;;10.30;;
51800;SDS011;37855;53.204;6.568;2024-01-30T05:38:19;16.77;;;10.63;;
51800;SDS011;37855;53.204;6.568;2024-01-30T05:40:45;15.53;;;10.23;;
51800;SDS011;37855;53.204;6.568;2024-01-30T05:43:10;18.30;;;11.02;;
51800;SDS011;37855;53.204;6.568;2024-01-30T05:45:36;16.93;;;10.70;;
51800;SDS011;37855;53.204;6.568;2024-01-30T05:48:02;18.83;;;10.45;;
51800;SDS011;37855;53.204;6.568;2024-01-30T05:50:28;17.30;;;10.90;;
51800;SDS011;37855;53.204;6.568;2024-01-30T05:52:54;18.60;;;10.13;;
51800;SDS011;37855;53.204;6.568;2024-01-30T05:55:19;16.50;;;9.75;;
51800;SDS011;37855;53.204;6.568;2024-01-30T05:57:45;16.13;;;10.03;;
51800;SDS011;37855;53.204;6.568;2024-01-30T06:00:11;16.48;;;11.07;;
51800;SDS011;37855;53.204;6.568;2024-01-30T06:02:36;18.00;;;10.70;;
51800;SDS011;37855;53.204;6.568;2024-01-30T06:05:02;18.77;;;10.98;;
51800;SDS011;37855;53.204;6.568;2024-01-30T06:07:28;15.03;;;10.63;;
51800;SDS011;37855;53.204;6.568;2024-01-30T06:09:53;16.48;;;10.52;;
51800;SDS011;37855;53.204;6.568;2024-01-30T06:12:19;22.53;;;10.93;;
51800;SDS011;37855;53.204;6.568;2024-01-30T06:14:45;18.15;;;10.82;;
51800;SDS011;37855;53.204;6.568;2024-01-30T06:17:10;17.17;;;11.30;;
51800;SDS011;37855;53.204;6.568;2024-01-30T06:19:37;18.05;;;10.50;;
51800;SDS011;37855;53.204;6.568;2024-01-30T06:22:04;17.25;;;10.55;;
51800;SDS011;37855;53.204;6.568;2024-01-30T06:24:30;22.00;;;10.98;;
51800;SDS011;37855;53.204;6.568;2024-01-30T06:26:55;19.83;;;10.47;;
51800;SDS011;37855;53.204;6.568;2024-01-30T06:29:21;18.10;;;10.53;;
51800;SDS011;37855;53.204;6.568;2024-01-30T06:31:47;17.57;;;9.97;;
51800;SDS011;37855;53.204;6.568;2024-01-30T06:34:12;16.73;;;10.03;;
51800;SDS011;37855;53.204;6.568;2024-01-30T06:36:38;17.05;;;10.90;;
51800;SDS011;37855;53.204;6.568;2024-01-30T06:39:04;17.60;;;10.03;;
51800;SDS011;37855;53.204;6.568;2024-01-30T06:41:33;17.25;;;10.70;;
51800;SDS011;37855;53.204;6.568;2024-01-30T06:44:02;18.33;;;10.30;;
51800;SDS011;37855;53.204;6.568;2024-01-30T06:46:29;17.92;;;10.32;;
51800;SDS011;37855;53.204;6.568;2024-01-30T06:48:55;16.20;;;10.50;;
51800;SDS011;37855;53.204;6.568;2024-01-30T06:51:21;17.53;;;10.43;;
51800;SDS011;37855;53.204;6.568;2024-01-30T06:53:46;15.95;;;10.20;;
51800;SDS011;37855;53.204;6.568;2024-01-30T06:56:12;17.60;;;10.10;;
51800;SDS011;37855;53.204;6.568;2024-01-30T06:58:37;18.90;;;9.82;;
51800;SDS011;37855;53.204;6.568;2024-01-30T07:01:03;15.87;;;10.20;;
51800;SDS011;37855;53.204;6.568;2024-01-30T07:03:29;15.90;;;10.00;;
51800;SDS011;37855;53.204;6.568;2024-01-30T07:05:55;18.03;;;9.87;;
51800;SDS011;37855;53.204;6.568;2024-01-30T07:08:20;17.83;;;10.35;;
51800;SDS011;37855;53.204;6.568;2024-01-30T07:10:47;17.77;;;10.27;;
51800;SDS011;37855;53.204;6.568;2024-01-30T07:13:13;17.87;;;10.50;;
51800;SDS011;37855;53.204;6.568;2024-01-30T07:15:41;17.63;;;10.45;;
51800;SDS011;37855;53.204;6.568;2024-01-30T07:18:07;16.75;;;10.07;;
51800;SDS011;37855;53.204;6.568;2024-01-30T07:20:32;16.77;;;10.13;;
51800;SDS011;37855;53.204;6.568;2024-01-30T07:22:58;16.50;;;10.17;;
51800;SDS011;37855;53.204;6.568;2024-01-30T07:25:24;17.90;;;10.00;;
51800;SDS011;37855;53.204;6.568;2024-01-30T07:27:54;15.93;;;10.25;;
51800;SDS011;37855;53.204;6.568;2024-01-30T07:30:19;17.70;;;10.10;;
51800;SDS011;37855;53.204;6.568;2024-01-30T07:32:46;15.70;;;9.98;;
51800;SDS011;37855;53.204;6.568;2024-01-30T07:35:13;18.35;;;10.20;;
51800;SDS011;37855;53.204;6.568;2024-01-30T07:37:39;15.10;;;9.80;;
51800;SDS011;37855;53.204;6.568;2024-01-30T07:40:05;17.10;;;9.67;;
51800;SDS011;37855;53.204;6.568;2024-01-30T07:42:31;18.15;;;10.30;;
51800;SDS011;37855;53.204;6.568;2024-01-30T07:44:57;17.80;;;10.13;;
51800;SDS011;37855;53.204;6.568;2024-01-30T07:47:23;18.20;;;10.47;;
51800;SDS011;37855;53.204;6.568;2024-01-30T07:49:48;18.30;;;10.13;;
51800;SDS011;37855;53.204;6.568;2024-01-30T07:52:14;14.87;;;9.97;;
51800;SDS011;37855;53.204;6.568;2024-01-30T07:54:43;20.70;;;10.80;;
51800;SDS011;37855;53.204;6.568;2024-01-30T07:57:15;16.37;;;9.80;;
51800;SDS011;37855;53.204;6.568;2024-01-30T07:59:44;19.38;;;10.73;;
51800;SDS011;37855;53.204;6.568;2024-01-30T08:02:11;15.35;;;9.55;;
51800;SDS011;37855;53.204;6.568;2024-01-30T08:04:38;17.40;;;9.67;;
51800;SDS011;37855;53.204;6.568;2024-01-30T08:07:03;16.25;;;10.13;;
51800;SDS011;37855;53.204;6.568;2024-01-30T08:09:29;24.70;;;12.67;;
51800;SDS011;37855;53.204;6.568;2024-01-30T08:11:54;20.52;;;11.88;;
51800;SDS011;37855;53.204;6.568;2024-01-30T08:14:20;18.30;;;10.43;;
51800;SDS011;37855;53.204;6.568;2024-01-30T08:16:46;21.85;;;11.75;;
51800;SDS011;37855;53.204;6.568;2024-01-30T08:19:11;20.83;;;11.30;;
51800;SDS011;37855;53.204;6.568;2024-01-30T08:21:37;16.13;;;10.40;;
51800;SDS011;37855;53.204;6.568;2024-01-30T08:24:03;20.00;;;9.90;;
51800;SDS011;37855;53.204;6.568;2024-01-30T08:26:29;17.52;;;9.65;;
51800;SDS011;37855;53.204;6.568;2024-01-30T08:29:01;17.25;;;10.40;;
51800;SDS011;37855;53.204;6.568;2024-01-30T08:31:27;20.10;;;11.13;;
51800;SDS011;37855;53.204;6.568;2024-01-30T08:33:53;16.27;;;10.00;;
51800;SDS011;37855;53.204;6.568;2024-01-30T08:36:21;17.50;;;10.05;;
51800;SDS011;37855;53.204;6.568;2024-01-30T08:38:46;14.60;;;9.30;;
51800;SDS011;37855;53.204;6.568;2024-01-30T08:41:12;14.82;;;9.32;;
51800;SDS011;37855;53.204;6.568;2024-01-30T08:43:41;16.20;;;9.50;;
51800;SDS011;37855;53.204;6.568;2024-01-30T08:46:07;17.60;;;9.43;;
51800;SDS011;37855;53.204;6.568;2024-01-30T08:48:32;19.63;;;9.90;;
51800;SDS011;37855;53.204;6.568;2024-01-30T08:50:58;17.87;;;10.10;;
51800;SDS011;37855;53.204;6.568;2024-01-30T08:53:24;17.67;;;9.88;;
51800;SDS011;37855;53.204;6.568;2024-01-30T08:55:49;19.87;;;9.50;;
51800;SDS011;37855;53.204;6.568;2024-01-30T08:58:15;16.67;;;9.18;;
51800;SDS011;37855;53.204;6.568;2024-01-30T09:00:43;14.63;;;9.07;;
51800;SDS011;37855;53.204;6.568;2024-01-30T09:03:08;17.97;;;9.60;;
51800;SDS011;37855;53.204;6.568;2024-01-30T09:05:34;14.80;;;8.27;;
51800;SDS011;37855;53.204;6.568;2024-01-30T09:08:00;19.02;;;9.02;;
51800;SDS011;37855;53.204;6.568;2024-01-30T09:10:25;18.43;;;9.23;;
51800;SDS011;37855;53.204;6.568;2024-01-30T09:12:51;17.67;;;10.13;;
51800;SDS011;37855;53.204;6.568;2024-01-30T09:15:17;16.20;;;8.60;;
51800;SDS011;37855;53.204;6.568;2024-01-30T09:17:44;14.70;;;9.37;;
51800;SDS011;37855;53.204;6.568;2024-01-30T09:20:09;18.52;;;10.05;;
51800;SDS011;37855;53.204;6.568;2024-01-30T09:22:35;18.67;;;9.57;;
51800;SDS011;37855;53.204;6.568;2024-01-30T09:25:04;15.37;;;9.20;;
51800;SDS011;37855;53.204;6.568;2024-01-30T09:27:30;16.45;;;9.60;;
51800;SDS011;37855;53.204;6.568;2024-01-30T09:29:56;14.23;;;8.60;;
51800;SDS011;37855;53.204;6.568;2024-01-30T09:32:21;15.47;;;9.10;;
51800;SDS011;37855;53.204;6.568;2024-01-30T09:34:47;16.58;;;9.13;;
51800;SDS011;37855;53.204;6.568;2024-01-30T09:37:12;16.87;;;8.83;;
51800;SDS011;37855;53.204;6.568;2024-01-30T09:39:40;13.43;;;8.32;;
51800;SDS011;37855;53.204;6.568;2024-01-30T09:44:57;17.52;;;9.27;;
51800;SDS011;37855;53.204;6.568;2024-01-30T09:47:22;17.20;;;9.45;;
51800;SDS011;37855;53.204;6.568;2024-01-30T09:49:48;17.30;;;8.60;;
51800;SDS011;37855;53.204;6.568;2024-01-30T09:52:14;16.52;;;9.20;;
51800;SDS011;37855;53.204;6.568;2024-01-30T09:54:42;16.50;;;8.93;;
51800;SDS011;37855;53.204;6.568;2024-01-30T09:57:10;15.07;;;9.40;;
51800;SDS011;37855;53.204;6.568;2024-01-30T09:59:36;20.92;;;9.57;;
51800;SDS011;37855;53.204;6.568;2024-01-30T10:02:02;18.07;;;9.07;;
51800;SDS011;37855;53.204;6.568;2024-01-30T10:04:29;13.57;;;8.98;;
51800;SDS011;37855;53.204;6.568;2024-01-30T10:06:55;16.08;;;8.60;;
51800;SDS011;37855;53.204;6.568;2024-01-30T10:09:21;18.60;;;9.33;;
51800;SDS011;37855;53.204;6.568;2024-01-30T10:11:48;18.85;;;9.55;;
51800;SDS011;37855;53.204;6.568;2024-01-30T10:14:16;15.48;;;8.73;;
51800;SDS011;37855;53.204;6.568;2024-01-30T10:16:41;18.17;;;9.07;;
51800;SDS011;37855;53.204;6.568;2024-01-30T10:19:07;16.10;;;8.60;;
51800;SDS011;37855;53.204;6.568;2024-01-30T10:21:34;15.55;;;8.63;;
51800;SDS011;37855;53.204;6.568;2024-01-30T10:24:00;16.75;;;8.93;;
51800;SDS011;37855;53.204;6.568;2024-01-30T10:26:26;15.37;;;8.73;;
51800;SDS011;37855;53.204;6.568;2024-01-30T10:28:51;17.13;;;9.00;;
51800;SDS011;37855;53.204;6.568;2024-01-30T10:31:17;18.05;;;9.80;;
51800;SDS011;37855;53.204;6.568;2024-01-30T10:33:44;18.60;;;9.75;;
51800;SDS011;37855;53.204;6.568;2024-01-30T10:36:09;19.40;;;10.13;;
51800;SDS011;37855;53.204;6.568;2024-01-30T10:38:39;19.73;;;10.40;;
51800;SDS011;37855;53.204;6.568;2024-01-30T10:41:07;13.47;;;8.93;;
51800;SDS011;37855;53.204;6.568;2024-01-30T10:43:40;14.90;;;8.60;;
51800;SDS011;37855;53.204;6.568;2024-01-30T10:48:49;14.18;;;8.63;;
51800;SDS011;37855;53.204;6.568;2024-01-30T10:51:22;18.48;;;9.77;;
51800;SDS011;37855;53.204;6.568;2024-01-30T10:53:48;16.43;;;9.53;;
51800;SDS011;37855;53.204;6.568;2024-01-30T10:56:14;18.80;;;9.52;;
51800;SDS011;37855;53.204;6.568;2024-01-30T10:58:41;15.70;;;9.40;;
51800;SDS011;37855;53.204;6.568;2024-01-30T11:01:07;20.73;;;9.77;;
51800;SDS011;37855;53.204;6.568;2024-01-30T11:03:33;16.48;;;9.80;;
51800;SDS011;37855;53.204;6.568;2024-01-30T11:06:04;16.83;;;8.95;;
51800;SDS011;37855;53.204;6.568;2024-01-30T11:08:31;16.55;;;9.38;;
51800;SDS011;37855;53.204;6.568;2024-01-30T11:10:58;19.30;;;10.00;;
51800;SDS011;37855;53.204;6.568;2024-01-30T11:13:30;18.88;;;9.50;;
51800;SDS011;37855;53.204;6.568;2024-01-30T11:16:02;15.95;;;9.32;;
51800;SDS011;37855;53.204;6.568;2024-01-30T11:18:31;17.92;;;9.32;;
51800;SDS011;37855;53.204;6.568;2024-01-30T11:21:01;16.35;;;9.77;;
51800;SDS011;37855;53.204;6.568;2024-01-30T11:23:30;18.83;;;9.77;;
51800;SDS011;37855;53.204;6.568;2024-01-30T11:25:58;15.73;;;8.93;;
51800;SDS011;37855;53.204;6.568;2024-01-30T11:28:23;17.27;;;9.18;;
51800;SDS011;37855;53.204;6.568;2024-01-30T11:30:49;15.97;;;8.70;;
51800;SDS011;37855;53.204;6.568;2024-01-30T11:33:16;16.05;;;7.30;;
51800;SDS011;37855;53.204;6.568;2024-01-30T11:35:56;18.42;;;7.70;;
51800;SDS011;37855;53.204;6.568;2024-01-30T11:38:24;15.38;;;6.93;;
51800;SDS011;37855;53.204;6.568;2024-01-30T11:40:52;14.70;;;6.65;;
51800;SDS011;37855;53.204;6.568;2024-01-30T11:43:19;20.10;;;6.77;;
51800;SDS011;37855;53.204;6.568;2024-01-30T11:45:45;15.68;;;5.72;;
51800;SDS011;37855;53.204;6.568;2024-01-30T11:48:11;16.80;;;6.28;;
51800;SDS011;37855;53.204;6.568;2024-01-30T11:50:38;13.30;;;5.70;;
51800;SDS011;37855;53.204;6.568;2024-01-30T11:53:05;12.40;;;4.70;;
51800;SDS011;37855;53.204;6.568;2024-01-30T11:55:31;12.30;;;3.85;;
51800;SDS011;37855;53.204;6.568;2024-01-30T11:57:58;8.93;;;3.40;;
51800;SDS011;37855;53.204;6.568;2024-01-30T12:00:24;9.60;;;3.40;;
51800;SDS011;37855;53.204;6.568;2024-01-30T12:02:53;8.50;;;3.22;;
51800;SDS011;37855;53.204;6.568;2024-01-30T12:05:25;8.88;;;2.88;;
51800;SDS011;37855;53.204;6.568;2024-01-30T12:07:51;6.70;;;2.63;;
51800;SDS011;37855;53.204;6.568;2024-01-30T12:10:17;9.80;;;3.27;;
51800;SDS011;37855;53.204;6.568;2024-01-30T12:12:44;7.75;;;2.65;;
51800;SDS011;37855;53.204;6.568;2024-01-30T12:15:18;6.07;;;2.60;;
51800;SDS011;37855;53.204;6.568;2024-01-30T12:17:46;9.15;;;2.70;;
51800;SDS011;37855;53.204;6.568;2024-01-30T12:25:14;4.90;;;1.70;;
51800;SDS011;37855;53.204;6.568;2024-01-30T12:27:42;4.85;;;1.70;;
51800;SDS011;37855;53.204;6.568;2024-01-30T12:30:09;4.33;;;1.40;;
51800;SDS011;37855;53.204;6.568;2024-01-30T12:32:38;2.63;;;1.23;;
51800;SDS011;37855;53.204;6.568;2024-01-30T12:35:15;3.22;;;1.55;;
51800;SDS011;37855;53.204;6.568;2024-01-30T12:37:45;3.70;;;1.40;;
51800;SDS011;37855;53.204;6.568;2024-01-30T12:40:11;5.63;;;1.40;;
51800;SDS011;37855;53.204;6.568;2024-01-30T12:42:39;6.10;;;1.30;;
51800;SDS011;37855;53.204;6.568;2024-01-30T12:45:07;8.68;;;1.90;;
51800;SDS011;37855;53.204;6.568;2024-01-30T12:47:34;4.05;;;1.50;;
51800;SDS011;37855;53.204;6.568;2024-01-30T12:49:59;4.70;;;1.40;;
51800;SDS011;37855;53.204;6.568;2024-01-30T15:50:38;6.37;;;3.10;;
51800;SDS011;37855;53.204;6.568;2024-01-30T15:53:04;5.57;;;3.15;;
51800;SDS011;37855;53.204;6.568;2024-01-30T15:55:30;7.53;;;3.40;;
51800;SDS011;37855;53.204;6.568;2024-01-30T15:57:56;6.47;;;3.60;;
51800;SDS011;37855;53.204;6.568;2024-01-30T16:00:22;6.13;;;2.85;;
51800;SDS011;37855;53.204;6.568;2024-01-30T16:02:47;5.27;;;2.77;;
51800;SDS011;37855;53.204;6.568;2024-01-30T16:05:13;5.15;;;3.00;;
51800;SDS011;37855;53.204;6.568;2024-01-30T16:07:39;5.40;;;2.97;;
51800;SDS011;37855;53.204;6.568;2024-01-30T16:10:04;6.80;;;3.47;;
51800;SDS011;37855;53.204;6.568;2024-01-30T16:16:12;5.85;;;3.20;;
51800;SDS011;37855;53.204;6.568;2024-01-30T16:18:38;5.90;;;3.80;;
51800;SDS011;37855;53.204;6.568;2024-01-30T16:21:04;7.28;;;3.88;;
51800;SDS011;37855;53.204;6.568;2024-01-30T16:23:34;5.53;;;3.13;;
51800;SDS011;37855;53.204;6.568;2024-01-30T16:25:59;6.18;;;3.10;;
51800;SDS011;37855;53.204;6.568;2024-01-30T16:28:25;8.47;;;3.57;;
51800;SDS011;37855;53.204;6.568;2024-01-30T16:30:51;6.72;;;3.08;;
51800;SDS011;37855;53.204;6.568;2024-01-30T16:33:17;8.52;;;3.10;;
51800;SDS011;37855;53.204;6.568;2024-01-30T16:35:43;6.57;;;2.80;;
51800;SDS011;37855;53.204;6.568;2024-01-30T16:38:09;7.07;;;2.78;;
51800;SDS011;37855;53.204;6.568;2024-01-30T16:40:35;10.48;;;3.30;;
51800;SDS011;37855;53.204;6.568;2024-01-30T16:43:03;7.73;;;2.80;;
51800;SDS011;37855;53.204;6.568;2024-01-30T16:45:29;11.77;;;3.08;;
51800;SDS011;37855;53.204;6.568;2024-01-30T16:47:55;9.23;;;3.00;;
51800;SDS011;37855;53.204;6.568;2024-01-30T16:50:21;10.35;;;3.17;;
51800;SDS011;37855;53.204;6.568;2024-01-30T16:52:46;8.70;;;3.63;;
51800;SDS011;37855;53.204;6.568;2024-01-30T16:55:12;10.07;;;3.60;;
51800;SDS011;37855;53.204;6.568;2024-01-30T16:57:38;10.37;;;2.73;;
51800;SDS011;37855;53.204;6.568;2024-01-30T17:00:04;7.03;;;2.72;;
51800;SDS011;37855;53.204;6.568;2024-01-30T17:02:33;8.10;;;3.03;;
51800;SDS011;37855;53.204;6.568;2024-01-30T17:04:58;7.43;;;2.50;;
51800;SDS011;37855;53.204;6.568;2024-01-30T17:07:24;6.90;;;2.60;;
51800;SDS011;37855;53.204;6.568;2024-01-30T17:09:50;7.70;;;2.60;;
51800;SDS011;37855;53.204;6.568;2024-01-30T17:12:15;9.07;;;2.80;;
51800;SDS011;37855;53.204;6.568;2024-01-30T17:14:41;8.00;;;2.77;;
51800;SDS011;37855;53.204;6.568;2024-01-30T17:17:07;7.35;;;2.42;;
51800;SDS011;37855;53.204;6.568;2024-01-30T17:19:34;5.97;;;2.20;;
51800;SDS011;37855;53.204;6.568;2024-01-30T17:22:00;8.60;;;2.77;;
51800;SDS011;37855;53.204;6.568;2024-01-30T17:24:25;6.43;;;2.22;;
51800;SDS011;37855;53.204;6.568;2024-01-30T17:26:51;9.67;;;2.83;;
51800;SDS011;37855;53.204;6.568;2024-01-30T17:29:17;9.73;;;2.67;;
51800;SDS011;37855;53.204;6.568;2024-01-30T17:31:42;9.13;;;3.00;;
51800;SDS011;37855;53.204;6.568;2024-01-30T17:34:10;13.60;;;3.35;;
51800;SDS011;37855;53.204;6.568;2024-01-30T17:36:36;12.73;;;3.40;;